createdAt,value
2019-03-23T00:00:47.584Z,26.20
2019-03-23T00:03:17.962Z,26.20
2019-03-23T00:05:48.684Z,26.20
2019-03-23T00:08:19.056Z,26.20
2019-03-23T00:10:49.556Z,26.20
2019-03-23T00:13:20.729Z,26.20
2019-03-23T00:15:51.203Z,26.20
2019-03-23T00:18:21.607Z,26.20
2019-03-23T00:20:52.309Z,26.20
2019-03-23T00:23:23.364Z,26.20
2019-03-23T00:25:53.932Z,26.20
2019-03-23T00:28:24.526Z,26.20
2019-03-23T00:30:55.386Z,26.20
2019-03-23T00:33:25.777Z,26.20
2019-03-23T00:35:56.135Z,26.10
2019-03-23T00:38:26.814Z,26.10
2019-03-23T00:40:57.776Z,26.10
2019-03-23T00:43:28.125Z,26.10
2019-03-23T00:45:58.880Z,26.10
2019-03-23T00:48:29.583Z,26.00
2019-03-23T00:51:00.331Z,26.10
2019-03-23T00:53:30.968Z,26.10
2019-03-23T00:56:01.581Z,26.10
2019-03-23T00:58:31.984Z,26.00
2019-03-23T01:01:02.430Z,26.00
2019-03-23T01:03:32.891Z,26.00
2019-03-23T01:06:03.366Z,26.00
2019-03-23T01:08:33.834Z,26.00
2019-03-23T01:11:04.491Z,26.00
2019-03-23T01:13:35.268Z,26.00
2019-03-23T01:16:05.680Z,26.00
2019-03-23T01:18:36.237Z,26.00
2019-03-23T01:21:07.048Z,25.90
2019-03-23T01:23:37.508Z,25.90
2019-03-23T01:26:08.366Z,25.90
2019-03-23T01:28:38.836Z,25.90
2019-03-23T01:31:09.313Z,25.90
2019-03-23T01:33:39.912Z,25.90
2019-03-23T01:36:10.607Z,25.90
2019-03-23T01:38:41.073Z,25.90
2019-03-23T01:41:11.717Z,25.90
2019-03-23T01:43:42.119Z,25.90
2019-03-23T01:46:12.917Z,25.90
2019-03-23T01:48:43.812Z,25.90
2019-03-23T01:51:14.542Z,25.80
2019-03-23T01:53:45.013Z,25.80
2019-03-23T01:56:15.501Z,25.80
2019-03-23T01:58:45.963Z,25.80
2019-03-23T02:01:16.329Z,25.80
2019-03-23T02:03:47.247Z,25.80
2019-03-23T02:06:17.836Z,25.80
2019-03-23T02:08:48.638Z,25.80
2019-03-23T02:11:19.458Z,25.70
2019-03-23T02:13:49.963Z,25.80
2019-03-23T02:16:20.586Z,25.80
2019-03-23T02:18:51.052Z,25.80
2019-03-23T02:21:21.494Z,25.70
2019-03-23T02:23:51.853Z,25.70
2019-03-23T02:26:22.680Z,25.70
2019-03-23T02:28:53.016Z,25.70
2019-03-23T02:31:23.640Z,25.70
2019-03-23T02:33:54.121Z,25.70
2019-03-23T02:36:25.167Z,25.70
2019-03-23T02:38:55.870Z,25.70
2019-03-23T02:41:26.236Z,25.70
2019-03-23T02:43:57.101Z,25.60
2019-03-23T02:46:27.919Z,25.60
2019-03-23T02:48:58.293Z,25.70
2019-03-23T02:51:29.313Z,25.70
2019-03-23T02:54:00.428Z,25.60
2019-03-23T02:56:31.186Z,25.60
2019-03-23T02:59:01.590Z,25.60
2019-03-23T03:01:31.977Z,25.60
2019-03-23T03:04:02.454Z,25.50
2019-03-23T03:06:33.068Z,25.50
2019-03-23T03:09:04.947Z,25.50
2019-03-23T03:11:35.411Z,25.50
2019-03-23T03:14:06.049Z,25.50
2019-03-23T03:16:36.790Z,25.50
2019-03-23T03:19:07.603Z,25.50
2019-03-23T03:21:38.433Z,25.50
2019-03-23T03:24:08.780Z,25.40
2019-03-23T03:26:39.949Z,25.50
2019-03-23T03:29:10.843Z,25.50
2019-03-23T03:31:41.972Z,25.40
2019-03-23T03:34:12.671Z,25.40
2019-03-23T03:36:43.456Z,25.40
2019-03-23T03:39:14.218Z,25.40
2019-03-23T03:41:45.306Z,25.40
2019-03-23T03:44:16.129Z,25.30
2019-03-23T03:46:46.872Z,25.30
2019-03-23T03:49:17.799Z,25.30
2019-03-23T03:51:48.234Z,25.30
2019-03-23T03:54:18.581Z,25.30
2019-03-23T03:56:49.459Z,25.30
2019-03-23T03:59:20.452Z,25.30
2019-03-23T04:01:51.010Z,25.30
2019-03-23T04:04:21.357Z,25.30
2019-03-23T04:06:51.751Z,25.30
2019-03-23T04:09:22.517Z,25.20
2019-03-23T04:11:52.990Z,25.20
2019-03-23T04:14:23.459Z,25.20
2019-03-23T04:16:53.834Z,25.20
2019-03-23T04:19:24.363Z,25.20
2019-03-23T04:21:54.764Z,25.20
2019-03-23T04:24:25.492Z,25.20
2019-03-23T04:26:56.280Z,25.20
2019-03-23T04:29:26.750Z,25.20
2019-03-23T04:31:57.450Z,25.20
2019-03-23T04:34:28.164Z,25.20
2019-03-23T04:36:59.017Z,25.10
2019-03-23T04:39:30.088Z,25.10
2019-03-23T04:42:01.037Z,25.10
2019-03-23T04:44:31.439Z,25.20
2019-03-23T04:47:01.984Z,25.10
2019-03-23T04:49:32.689Z,25.10
2019-03-23T04:52:03.495Z,25.10
2019-03-23T04:54:33.865Z,25.10
2019-03-23T04:57:04.718Z,25.10
2019-03-23T04:59:35.186Z,25.00
2019-03-23T05:02:05.716Z,25.10
2019-03-23T05:04:36.434Z,25.10
2019-03-23T05:07:07.326Z,25.10
2019-03-23T05:09:37.955Z,25.00
2019-03-23T05:12:08.457Z,25.00
2019-03-23T05:14:38.909Z,25.00
2019-03-23T05:17:09.741Z,25.10
2019-03-23T05:19:40.263Z,25.00
2019-03-23T05:22:10.780Z,25.00
2019-03-23T05:24:41.550Z,25.00
2019-03-23T05:27:11.942Z,25.00
2019-03-23T05:29:42.737Z,25.00
2019-03-23T05:32:13.179Z,25.00
2019-03-23T05:34:43.595Z,25.00
2019-03-23T05:37:14.006Z,25.00
2019-03-23T05:39:44.479Z,25.00
2019-03-23T05:42:15.385Z,25.00
2019-03-23T05:44:46.138Z,24.90
2019-03-23T05:47:16.986Z,24.90
2019-03-23T05:49:47.873Z,25.00
2019-03-23T05:52:18.813Z,24.90
2019-03-23T05:54:49.639Z,24.90
2019-03-23T05:57:20.686Z,24.90
2019-03-23T05:59:51.231Z,24.90
2019-03-23T06:02:22.133Z,24.90
2019-03-23T06:04:53.177Z,24.90
2019-03-23T06:07:24.057Z,24.80
2019-03-23T06:09:54.853Z,24.90
2019-03-23T06:12:25.629Z,24.90
2019-03-23T06:14:56.135Z,24.80
2019-03-23T06:17:26.515Z,24.80
2019-03-23T06:19:56.990Z,24.80
2019-03-23T06:22:27.461Z,24.80
2019-03-23T06:24:58.405Z,24.80
2019-03-23T06:27:29.303Z,24.80
2019-03-23T06:30:00.450Z,24.80
2019-03-23T06:32:31.594Z,24.80
2019-03-23T06:35:02.255Z,24.80
2019-03-23T06:37:32.644Z,24.80
2019-03-23T06:40:03.108Z,24.80
2019-03-23T06:42:33.719Z,24.80
2019-03-23T06:45:04.658Z,24.80
2019-03-23T06:47:35.118Z,24.80
2019-03-23T06:50:07.655Z,24.70
2019-03-23T06:52:38.158Z,24.70
2019-03-23T06:55:09.574Z,24.70
2019-03-23T06:57:40.138Z,24.80
2019-03-23T07:00:15.903Z,24.80
2019-03-23T07:02:46.422Z,24.80
2019-03-23T07:05:17.545Z,24.70
2019-03-23T07:07:47.955Z,24.70
2019-03-23T07:10:18.820Z,24.70
2019-03-23T07:12:49.267Z,24.70
2019-03-23T07:15:20.592Z,24.70
2019-03-23T07:17:59.593Z,24.70
2019-03-23T07:20:30.050Z,24.70
2019-03-23T07:23:00.810Z,24.70
2019-03-23T07:25:31.513Z,24.70
2019-03-23T07:28:02.446Z,24.60
2019-03-23T07:30:33.195Z,24.70
2019-03-23T07:33:03.851Z,24.60
2019-03-23T07:35:34.502Z,24.60
2019-03-23T07:38:05.500Z,24.60
2019-03-23T07:40:35.872Z,24.60
2019-03-23T07:43:06.355Z,24.60
2019-03-23T07:45:36.877Z,24.60
2019-03-23T07:48:07.286Z,24.60
2019-03-23T07:50:38.066Z,24.60
2019-03-23T07:53:08.546Z,24.60
2019-03-23T07:55:39.231Z,24.60
2019-03-23T07:58:09.916Z,24.60
2019-03-23T08:00:41.082Z,24.60
2019-03-23T08:03:11.618Z,24.60
2019-03-23T08:05:42.270Z,24.60
2019-03-23T08:08:13.089Z,24.60
2019-03-23T08:10:43.967Z,24.60
2019-03-23T08:13:14.875Z,24.60
2019-03-23T08:15:45.807Z,24.60
2019-03-23T08:18:16.390Z,24.60
2019-03-23T08:20:47.217Z,24.70
2019-03-23T08:23:18.015Z,24.80
2019-03-23T08:25:48.795Z,24.80
2019-03-23T08:28:19.293Z,24.80
2019-03-23T08:30:49.786Z,24.80
2019-03-23T08:33:20.175Z,24.80
2019-03-23T08:35:50.658Z,24.80
2019-03-23T08:38:21.486Z,24.90
2019-03-23T08:40:52.313Z,24.80
2019-03-23T08:43:22.792Z,24.80
2019-03-23T08:45:53.313Z,24.90
2019-03-23T08:48:23.861Z,24.90
2019-03-23T08:50:54.675Z,24.90
2019-03-23T08:53:25.152Z,24.90
2019-03-23T08:55:55.930Z,24.90
2019-03-23T08:58:31.089Z,24.90
2019-03-23T09:01:01.736Z,24.90
2019-03-23T09:03:32.505Z,24.90
2019-03-23T09:06:02.937Z,24.90
2019-03-23T09:08:33.548Z,24.90
2019-03-23T09:11:04.223Z,25.00
2019-03-23T09:13:40.483Z,25.00
2019-03-23T09:16:07.161Z,25.00
2019-03-23T09:18:38.018Z,25.00
2019-03-23T09:21:08.694Z,25.00
2019-03-23T09:23:39.500Z,25.00
2019-03-23T09:26:10.437Z,25.00
2019-03-23T09:28:40.991Z,25.00
2019-03-23T09:31:11.784Z,25.00
2019-03-23T09:33:42.265Z,25.00
2019-03-23T09:36:12.692Z,25.00
2019-03-23T09:38:43.057Z,25.00
2019-03-23T09:41:14.229Z,25.00
2019-03-23T09:43:44.713Z,25.00
2019-03-23T09:46:15.425Z,25.00
2019-03-23T09:48:46.330Z,25.00
2019-03-23T09:51:16.973Z,25.00
2019-03-23T09:53:47.949Z,24.90
2019-03-23T09:56:18.583Z,24.90
2019-03-23T09:58:49.136Z,24.90
2019-03-23T10:01:19.873Z,24.80
2019-03-23T10:03:50.950Z,24.80
2019-03-23T10:06:21.867Z,24.80
2019-03-23T10:08:52.803Z,24.80
2019-03-23T10:11:23.533Z,24.80
2019-03-23T10:13:54.029Z,24.80
2019-03-23T10:16:25.220Z,24.80
2019-03-23T10:18:55.753Z,24.80
2019-03-23T10:21:26.114Z,24.80
2019-03-23T10:23:56.844Z,24.70
2019-03-23T10:26:27.316Z,24.70
2019-03-23T10:28:57.771Z,24.70
2019-03-23T10:31:28.251Z,24.70
2019-03-23T10:33:58.713Z,24.70
2019-03-23T10:36:29.248Z,24.70
2019-03-23T10:38:59.613Z,24.70
2019-03-23T10:41:30.401Z,24.70
2019-03-23T10:44:00.816Z,24.60
2019-03-23T10:46:31.127Z,24.70
2019-03-23T10:49:01.935Z,24.60
2019-03-23T10:51:32.291Z,24.60
2019-03-23T10:54:04.116Z,24.60
2019-03-23T10:56:34.823Z,24.60
2019-03-23T10:59:05.654Z,24.60
2019-03-23T11:01:36.467Z,24.60
2019-03-23T11:04:07.224Z,24.60
2019-03-23T11:06:37.841Z,24.60
2019-03-23T11:09:08.818Z,24.60
2019-03-23T11:11:39.715Z,24.50
2019-03-23T11:14:10.230Z,24.50
2019-03-23T11:16:40.597Z,24.50
2019-03-23T11:19:13.664Z,24.50
2019-03-23T11:21:42.941Z,24.50
2019-03-23T11:24:13.373Z,24.50
2019-03-23T11:26:43.737Z,24.50
2019-03-23T11:29:14.225Z,24.40
2019-03-23T11:31:45.081Z,24.40
2019-03-23T11:34:18.070Z,24.40
2019-03-23T11:36:47.667Z,24.40
2019-03-23T11:39:18.142Z,24.40
2019-03-23T11:41:48.504Z,24.40
2019-03-23T11:44:18.879Z,24.40
2019-03-23T11:46:49.350Z,24.40
2019-03-23T11:49:20.143Z,24.40
2019-03-23T11:51:50.913Z,24.40
2019-03-23T11:54:21.365Z,24.30
2019-03-23T11:56:52.070Z,24.30
2019-03-23T11:59:23.144Z,24.30
2019-03-23T12:01:53.851Z,24.30
2019-03-23T12:04:25.212Z,24.30
2019-03-23T12:06:56.103Z,24.30
2019-03-23T12:09:26.799Z,24.30
2019-03-23T12:11:57.538Z,24.30
2019-03-23T12:14:28.103Z,24.20
2019-03-23T12:16:59.021Z,24.20
2019-03-23T12:19:29.572Z,24.20
2019-03-23T12:22:00.298Z,24.20
2019-03-23T12:24:30.694Z,24.20
2019-03-23T12:27:01.667Z,24.20
2019-03-23T12:29:32.108Z,24.20
2019-03-23T12:32:02.758Z,24.20
2019-03-23T12:34:33.650Z,24.20
2019-03-23T12:37:05.582Z,24.20
2019-03-23T12:39:36.253Z,24.20
2019-03-23T12:42:07.055Z,24.20
2019-03-23T12:44:37.697Z,24.10
2019-03-23T12:47:08.188Z,24.10
2019-03-23T12:49:38.966Z,24.10
2019-03-23T12:52:09.709Z,24.10
2019-03-23T12:54:40.480Z,24.10
2019-03-23T12:57:11.210Z,24.10
2019-03-23T12:59:41.958Z,24.10
2019-03-23T13:02:12.838Z,24.10
2019-03-23T13:04:43.809Z,24.10
2019-03-23T13:07:14.494Z,24.10
2019-03-23T13:09:45.480Z,24.00
2019-03-23T13:12:16.334Z,24.00
2019-03-23T13:14:47.070Z,24.00
2019-03-23T13:17:17.547Z,24.00
2019-03-23T13:19:47.963Z,24.00
2019-03-23T13:22:18.410Z,24.00
2019-03-23T13:24:48.846Z,24.00
2019-03-23T13:27:19.737Z,24.00
2019-03-23T13:29:50.485Z,24.00
2019-03-23T13:32:21.178Z,23.90
2019-03-23T13:34:51.914Z,24.00
2019-03-23T13:37:23.518Z,23.90
2019-03-23T13:39:54.117Z,23.90
2019-03-23T13:42:24.638Z,23.90
2019-03-23T13:44:55.005Z,23.90
2019-03-23T13:47:25.446Z,23.90
2019-03-23T13:49:56.533Z,23.90
2019-03-23T13:52:27.056Z,23.90
2019-03-23T13:54:57.508Z,23.90
2019-03-23T13:57:27.874Z,23.90
2019-03-23T13:59:58.691Z,23.90
2019-03-23T14:02:29.162Z,23.90
2019-03-23T14:04:59.937Z,23.90
2019-03-23T14:07:30.558Z,23.90
2019-03-23T14:10:01.428Z,23.90
2019-03-23T14:12:32.254Z,23.80
2019-03-23T14:15:02.952Z,23.80
2019-03-23T14:17:33.419Z,23.80
2019-03-23T14:20:03.832Z,23.80
2019-03-23T14:22:34.499Z,23.80
2019-03-23T14:25:06.231Z,23.80
2019-03-23T14:27:37.079Z,23.80
2019-03-23T14:30:09.433Z,23.80
2019-03-23T14:32:40.374Z,23.80
2019-03-23T14:35:10.869Z,23.80
2019-03-23T14:37:41.419Z,23.80
2019-03-23T14:40:12.045Z,23.70
2019-03-23T14:42:42.535Z,23.70
2019-03-23T14:45:13.143Z,23.70
2019-03-23T14:47:43.946Z,23.70
2019-03-23T14:50:14.265Z,23.70
2019-03-23T14:52:44.788Z,23.70
2019-03-23T14:55:15.415Z,23.70
2019-03-23T14:57:45.762Z,23.70
2019-03-23T15:00:18.684Z,23.70
2019-03-23T15:02:49.394Z,23.70
2019-03-23T15:05:21.014Z,23.70
2019-03-23T15:07:51.388Z,23.70
2019-03-23T15:10:21.819Z,23.70
2019-03-23T15:12:52.567Z,23.70
2019-03-23T15:15:22.958Z,23.70
2019-03-23T15:17:54.129Z,23.70
2019-03-23T15:20:25.093Z,23.70
2019-03-23T15:22:55.593Z,23.70
2019-03-23T15:25:26.318Z,23.70
2019-03-23T15:27:56.783Z,23.60
2019-03-23T15:30:27.136Z,23.60
2019-03-23T15:32:57.914Z,23.60
2019-03-23T15:35:28.445Z,23.60
2019-03-23T15:37:59.201Z,23.60
2019-03-23T15:40:29.585Z,23.60
2019-03-23T15:43:00.054Z,23.60
2019-03-23T15:45:30.521Z,23.60
2019-03-23T15:48:00.937Z,23.60
2019-03-23T15:50:31.681Z,23.70
2019-03-23T15:53:02.212Z,23.60
2019-03-23T15:55:32.601Z,23.60
2019-03-23T15:58:03.140Z,23.60
2019-03-23T16:00:33.978Z,23.60
2019-03-23T16:03:04.558Z,23.60
2019-03-23T16:05:35.465Z,23.60
2019-03-23T16:08:05.893Z,23.60
2019-03-23T16:10:36.738Z,23.60
2019-03-23T16:13:07.091Z,23.60
2019-03-23T16:15:37.791Z,23.60
2019-03-23T16:18:08.261Z,23.60
2019-03-23T16:20:38.999Z,23.60
2019-03-23T16:23:09.654Z,23.60
2019-03-23T16:25:40.414Z,23.60
2019-03-23T16:28:10.880Z,23.60
2019-03-23T16:30:41.436Z,23.60
2019-03-23T16:33:11.809Z,23.60
2019-03-23T16:35:42.555Z,23.70
2019-03-23T16:38:13.433Z,23.60
2019-03-23T16:40:44.003Z,23.60
2019-03-23T16:43:14.787Z,23.70
2019-03-23T16:45:45.580Z,23.60
2019-03-23T16:48:16.027Z,23.70
2019-03-23T16:50:46.697Z,23.70
2019-03-23T16:53:17.553Z,23.60
2019-03-23T16:55:48.154Z,23.70
2019-03-23T16:58:18.503Z,23.70
2019-03-23T17:00:48.883Z,23.70
2019-03-23T17:03:19.622Z,23.70
2019-03-23T17:05:50.226Z,23.70
2019-03-23T17:08:20.948Z,23.70
2019-03-23T17:10:51.405Z,23.70
2019-03-23T17:13:22.295Z,23.70
2019-03-23T17:15:53.065Z,23.70
2019-03-23T17:18:23.819Z,23.80
2019-03-23T17:20:54.704Z,23.70
2019-03-23T17:23:25.751Z,23.70
2019-03-23T17:25:56.237Z,23.80
2019-03-23T17:28:26.745Z,23.80
2019-03-23T17:30:57.614Z,23.80
2019-03-23T17:33:28.412Z,23.80
2019-03-23T17:35:59.363Z,23.80
2019-03-23T17:38:29.831Z,23.80
2019-03-23T17:41:00.254Z,23.80
2019-03-23T17:43:30.602Z,23.80
2019-03-23T17:46:00.995Z,23.80
2019-03-23T17:48:31.780Z,23.80
2019-03-23T17:51:02.423Z,23.80
2019-03-23T17:53:33.365Z,23.80
2019-03-23T17:56:06.321Z,23.90
2019-03-23T17:58:36.562Z,23.90
2019-03-23T18:01:07.758Z,23.90
2019-03-23T18:03:38.209Z,23.90
2019-03-23T18:06:10.042Z,23.90
2019-03-23T18:08:40.415Z,23.90
2019-03-23T18:11:10.855Z,23.90
2019-03-23T18:13:41.227Z,23.90
2019-03-23T18:16:11.830Z,23.90
2019-03-23T18:18:42.550Z,23.90
2019-03-23T18:21:13.022Z,23.90
2019-03-23T18:23:43.547Z,23.90
2019-03-23T18:26:15.563Z,24.00
2019-03-23T18:28:46.536Z,23.90
2019-03-23T18:31:17.517Z,23.90
2019-03-23T18:33:47.982Z,24.00
2019-03-23T18:36:18.832Z,23.90
2019-03-23T18:38:49.703Z,24.00
2019-03-23T18:41:20.085Z,24.00
2019-03-23T18:43:50.898Z,24.00
2019-03-23T18:46:21.362Z,24.00
2019-03-23T18:48:54.182Z,24.00
2019-03-23T18:51:25.019Z,24.00
2019-03-23T18:53:55.473Z,24.10
2019-03-23T18:56:26.402Z,24.10
2019-03-23T18:58:56.816Z,24.10
2019-03-23T19:01:27.309Z,24.10
2019-03-23T19:03:59.027Z,24.10
2019-03-23T19:06:29.813Z,24.10
2019-03-23T19:09:00.475Z,24.10
2019-03-23T19:11:30.914Z,24.10
2019-03-23T19:14:01.585Z,24.10
2019-03-23T19:16:31.998Z,24.10
2019-03-23T19:19:02.474Z,24.20
2019-03-23T19:21:33.265Z,24.20
2019-03-23T19:24:04.297Z,24.20
2019-03-23T19:26:35.098Z,24.20
2019-03-23T19:29:06.027Z,24.20
2019-03-23T19:31:36.381Z,24.20
2019-03-23T19:34:06.933Z,24.20
2019-03-23T19:36:38.619Z,24.20
2019-03-23T19:39:09.759Z,24.20
2019-03-23T19:41:40.483Z,24.20
2019-03-23T19:44:11.346Z,24.20
2019-03-23T19:46:42.153Z,24.20
2019-03-23T19:49:12.982Z,24.30
2019-03-23T19:51:43.998Z,24.30
2019-03-23T19:54:14.636Z,24.20
2019-03-23T19:56:45.090Z,24.30
2019-03-23T19:59:15.528Z,24.30
2019-03-23T20:01:46.184Z,24.30
2019-03-23T20:04:16.874Z,24.30
2019-03-23T20:06:47.586Z,24.30
2019-03-23T20:09:18.053Z,24.30
2019-03-23T20:11:48.526Z,24.30
2019-03-23T20:14:18.975Z,24.30
2019-03-23T20:16:49.681Z,24.30
2019-03-23T20:19:20.585Z,24.30
2019-03-23T20:21:51.151Z,24.30
2019-03-23T20:24:21.860Z,24.30
2019-03-23T20:26:52.610Z,24.30
2019-03-23T20:29:23.050Z,24.30
2019-03-23T20:31:53.755Z,24.30
2019-03-23T20:34:24.350Z,24.30
2019-03-23T20:36:54.780Z,24.40
2019-03-23T20:39:25.251Z,24.40
2019-03-23T20:41:55.960Z,24.40
2019-03-23T20:44:26.943Z,24.40
2019-03-23T20:46:57.364Z,24.40
2019-03-23T20:49:28.117Z,24.40
2019-03-23T20:51:59.420Z,24.40
2019-03-23T20:54:29.973Z,24.40
2019-03-23T20:57:00.689Z,24.40
2019-03-23T20:59:31.837Z,24.40
2019-03-23T21:02:02.532Z,24.40
2019-03-23T21:04:33.175Z,24.40
2019-03-23T21:07:03.541Z,24.40
2019-03-23T21:09:34.474Z,24.40
2019-03-23T21:12:05.037Z,24.40
2019-03-23T21:14:35.652Z,24.40
2019-03-23T21:17:06.596Z,24.40
2019-03-23T21:19:37.605Z,24.50
2019-03-23T21:22:08.130Z,24.50
2019-03-23T21:24:41.667Z,24.50
2019-03-23T21:27:12.384Z,24.50
2019-03-23T21:29:43.298Z,24.60
2019-03-23T21:32:13.837Z,24.60
2019-03-23T21:34:44.523Z,24.60
2019-03-23T21:37:15.239Z,24.60
2019-03-23T21:39:46.425Z,24.60
2019-03-23T21:42:17.348Z,24.60
2019-03-23T21:44:47.991Z,24.60
2019-03-23T21:47:18.351Z,24.60
2019-03-23T21:49:49.137Z,24.70
2019-03-23T21:52:19.849Z,24.60
2019-03-23T21:54:50.523Z,24.70
2019-03-23T21:57:21.196Z,24.70
2019-03-23T21:59:51.541Z,24.70
2019-03-23T22:02:22.481Z,24.70
2019-03-23T22:04:53.067Z,24.70
2019-03-23T22:07:23.683Z,24.70
2019-03-23T22:09:54.473Z,24.70
2019-03-23T22:12:25.303Z,24.80
2019-03-23T22:14:56.262Z,24.80
2019-03-23T22:17:26.718Z,24.80
2019-03-23T22:19:57.223Z,24.80
2019-03-23T22:22:27.629Z,24.80
2019-03-23T22:24:58.503Z,24.80
2019-03-23T22:27:29.295Z,24.80
2019-03-23T22:29:59.767Z,24.80
2019-03-23T22:32:30.583Z,24.80
2019-03-23T22:35:01.295Z,24.90
2019-03-23T22:37:31.902Z,24.80
2019-03-23T22:40:02.262Z,24.90
2019-03-23T22:42:32.666Z,24.90
2019-03-23T22:45:03.547Z,24.90
2019-03-23T22:47:34.112Z,24.90
2019-03-23T22:50:04.688Z,24.90
2019-03-23T22:52:35.234Z,24.90
2019-03-23T22:55:07.067Z,24.90
2019-03-23T22:57:37.611Z,25.00
2019-03-23T23:00:11.502Z,24.90
2019-03-23T23:02:42.449Z,25.00
2019-03-23T23:05:12.935Z,25.00
2019-03-23T23:07:43.951Z,25.00
2019-03-23T23:10:14.740Z,25.00
2019-03-23T23:12:45.304Z,25.00
2019-03-23T23:15:15.752Z,25.00
2019-03-23T23:17:46.555Z,25.00
2019-03-23T23:20:17.356Z,25.00
2019-03-23T23:22:47.816Z,25.00
2019-03-23T23:25:18.191Z,25.00
2019-03-23T23:27:48.585Z,25.00
2019-03-23T23:30:19.612Z,25.00
2019-03-23T23:32:50.484Z,25.00
2019-03-23T23:35:21.122Z,25.00
2019-03-23T23:37:51.592Z,25.00
2019-03-23T23:40:21.967Z,25.00
2019-03-23T23:42:52.378Z,25.00
2019-03-23T23:45:23.038Z,25.00
2019-03-23T23:47:53.803Z,25.00
2019-03-23T23:50:24.487Z,25.00
2019-03-23T23:52:55.054Z,25.10
2019-03-23T23:55:25.526Z,25.10
2019-03-23T23:57:56.392Z,25.10
